Time;durP1;ratioP1;P1;durP2;ratioP2;P2;SDS_P1;SDS_P2;PMS_P1;PMS_P2;Temp;Humidity;BMP_temperature;BMP_pressure;BME280_temperature;BME280_humidity;BME280_pressure;Samples;Min_cycle;Max_cycle;Signal;HPM_P1;HPM_P2
2023/01/11 00:00:37;;;;;;;1.02;0.50;;;9.60;1.00;;;;;;5091132;28;20741;-72
2023/01/11 00:03:04;;;;;;;1.13;0.50;;;9.60;1.00;;;;;;5072207;28;20402;-72
2023/01/11 00:05:30;;;;;;;1.20;0.70;;;9.60;1.00;;;;;;5072742;28;20806;-72
2023/01/11 00:07:55;;;;;;;1.60;0.50;;;9.60;1.00;;;;;;5086002;28;20446;-72
2023/01/11 00:10:21;;;;;;;0.75;0.40;;;9.60;1.00;;;;;;5090599;28;20888;-72
2023/01/11 00:12:47;;;;;;;1.17;0.50;;;9.60;1.00;;;;;;5090102;28;20389;-72
2023/01/11 00:15:13;;;;;;;1.00;0.40;;;9.60;1.00;;;;;;5091011;28;20868;-72
2023/01/11 00:17:40;;;;;;;0.70;0.40;;;9.60;1.00;;;;;;5090395;28;20435;-72
2023/01/11 00:20:06;;;;;;;0.85;0.50;;;9.60;1.00;;;;;;5090768;28;20422;-72
2023/01/11 00:22:32;;;;;;;0.60;0.50;;;9.60;1.00;;;;;;5090297;28;20484;-72
2023/01/11 00:24:57;;;;;;;0.63;0.50;;;9.60;1.00;;;;;;5090788;28;20812;-72
2023/01/11 00:27:23;;;;;;;0.88;0.57;;;9.50;1.00;;;;;;5072487;28;20382;-72
2023/01/11 00:29:48;;;;;;;1.00;0.50;;;9.70;1.00;;;;;;5090504;28;20443;-72
2023/01/11 00:32:14;;;;;;;0.70;0.50;;;9.60;1.00;;;;;;5090721;28;20744;-72
2023/01/11 00:34:39;;;;;;;1.30;0.70;;;9.60;6.70;;;;;;5089479;28;20390;-71
2023/01/11 00:37:05;;;;;;;1.50;1.10;;;9.70;1.00;;;;;;5090591;28;20386;-71
2023/01/11 00:39:30;;;;;;;1.13;0.65;;;9.70;3.60;;;;;;5072445;28;20760;-71
2023/01/11 00:48:24;;;;;;;1.20;0.50;;;9.90;22.30;;;;;;5090257;28;20458;-72
2023/01/11 00:50:18;;;;;;;0.90;0.40;;;9.90;32.90;;;;;;5072401;28;20396;-71
2023/01/11 00:52:44;;;;;;;0.93;0.50;;;10.00;23.30;;;;;;5089623;28;20473;-71
2023/01/11 00:55:09;;;;;;;0.70;0.60;;;10.00;42.70;;;;;;5090492;28;20382;-71
2023/01/11 00:57:35;;;;;;;0.40;0.40;;;9.90;90.90;;;;;;5090172;28;20390;-72
2023/01/11 01:00:00;;;;;;;1.47;0.40;;;9.90;96.10;;;;;;5089716;28;20855;-71
2023/01/11 01:02:26;;;;;;;0.40;0.30;;;9.90;96.90;;;;;;5071899;28;20452;-71
2023/01/11 01:04:52;;;;;;;0.80;0.40;;;10.00;99.40;;;;;;5089888;28;20475;-71
2023/01/11 01:07:17;;;;;;;0.82;0.40;;;10.00;88.40;;;;;;5092199;28;20382;-71
2023/01/11 01:09:42;;;;;;;0.50;0.50;;;10.00;92.20;;;;;;5077150;28;20388;-71
2023/01/11 01:12:08;;;;;;;1.60;0.50;;;9.90;99.90;;;;;;5094199;28;20746;-72
2023/01/11 01:14:34;;;;;;;0.87;0.30;;;9.90;99.90;;;;;;5093655;28;20468;-71
2023/01/11 01:17:08;;;;;;;0.50;0.30;;;9.90;99.90;;;;;;5076147;28;20375;-71
2023/01/11 01:19:37;;;;;;;1.00;0.50;;;9.90;99.90;;;;;;5094104;28;20747;-71
2023/01/11 01:22:03;;;;;;;0.40;0.40;;;9.90;99.90;;;;;;5093893;28;20378;-72
2023/01/11 01:24:29;;;;;;;0.80;0.40;;;9.90;99.90;;;;;;5092954;28;20455;-71
2023/01/11 01:26:56;;;;;;;1.10;0.40;;;10.00;99.90;;;;;;5093971;28;20402;-72
2023/01/11 01:29:22;;;;;;;1.20;0.40;;;9.90;99.90;;;;;;5093888;28;20401;-72
2023/01/11 01:31:48;;;;;;;0.50;0.40;;;9.90;99.90;;;;;;5093963;28;20410;-72
2023/01/11 01:34:14;;;;;;;0.63;0.40;;;10.00;99.90;;;;;;5093160;28;20413;-72
2023/01/11 01:36:40;;;;;;;0.80;0.40;;;10.00;99.90;;;;;;5075281;28;20439;-72
2023/01/11 01:39:06;;;;;;;0.80;0.50;;;10.10;99.90;;;;;;5093880;28;20382;-71
2023/01/11 01:41:33;;;;;;;1.30;0.30;;;10.20;99.90;;;;;;5093768;28;20378;-72
2023/01/11 01:44:05;;;;;;;0.50;0.32;;;10.10;99.90;;;;;;5092976;28;20439;-72
2023/01/11 01:46:32;;;;;;;0.50;0.40;;;10.00;99.90;;;;;;5093576;28;20402;-72
2023/01/11 01:49:03;;;;;;;1.50;0.40;;;10.00;99.90;;;;;;5093583;28;20413;-72
2023/01/11 01:51:33;;;;;;;0.50;0.38;;;10.00;99.90;;;;;;5093927;28;20388;-71
2023/01/11 01:54:05;;;;;;;1.15;0.40;;;10.10;99.90;;;;;;5092913;28;20378;-72
2023/01/11 01:56:39;;;;;;;0.50;0.30;;;10.10;99.90;;;;;;5093276;28;20406;-71
2023/01/11 01:59:11;;;;;;;0.40;0.30;;;10.30;99.90;;;;;;5094000;28;20413;-71
2023/01/11 02:01:46;;;;;;;0.57;0.38;;;10.40;99.90;;;;;;5093781;28;20374;-71
2023/01/11 02:04:20;;;;;;;0.80;0.40;;;10.40;98.50;;;;;;5092636;28;20378;-71
2023/01/11 02:06:46;;;;;;;0.65;0.38;;;10.30;99.90;;;;;;5075079;28;20502;-72
2023/01/11 02:09:34;;;;;;;0.52;0.40;;;10.30;99.90;;;;;;5078145;28;20375;-71
2023/01/11 02:12:01;;;;;;;0.80;0.40;;;10.30;99.90;;;;;;5079383;28;20786;-71
2023/01/11 02:14:29;;;;;;;0.50;0.40;;;10.50;75.70;;;;;;5092762;28;20378;-72
2023/01/11 02:16:55;;;;;;;1.20;0.40;;;10.70;29.70;;;;;;5092856;28;20390;-72
2023/01/11 02:19:46;;;;;;;1.00;0.50;;;10.70;23.90;;;;;;5092881;28;20439;-72
2023/01/11 02:22:45;;;;;;;0.70;0.30;;;10.70;37.60;;;;;;5092822;28;20485;-72
2023/01/11 02:25:40;;;;;;;0.47;0.30;;;10.70;27.80;;;;;;5020378;28;20427;-72
2023/01/11 02:28:37;;;;;;;0.70;0.40;;;10.80;24.90;;;;;;5092506;28;20382;-72
2023/01/11 02:31:12;;;;;;;1.15;0.40;;;10.80;9.40;;;;;;5092956;28;20423;-72
2023/01/11 02:34:02;;;;;;;0.90;0.40;;;10.90;2.50;;;;;;5091897;28;20374;-72
2023/01/11 02:36:32;;;;;;;0.50;0.40;;;10.80;12.20;;;;;;5092795;28;20885;-74
2023/01/11 02:39:00;;;;;;;0.50;0.50;;;10.80;1.00;;;;;;5092619;28;20405;-73
2023/01/11 02:45:00;;;;;;;0.47;0.30;;;10.90;1.00;;;;;;5092501;28;20398;-73
2023/01/11 02:47:20;;;;;;;0.50;0.30;;;10.90;1.00;;;;;;5092413;28;20424;-73
2023/01/11 02:50:17;;;;;;;0.93;0.40;;;10.90;1.00;;;;;;5092628;28;20465;-73
2023/01/11 02:53:05;;;;;;;0.40;0.30;;;11.00;1.00;;;;;;5090980;28;20426;-72
2023/01/11 02:55:41;;;;;;;0.50;0.40;;;10.90;1.00;;;;;;5092281;28;20859;-72
2023/01/11 02:58:10;;;;;;;0.80;0.40;;;11.00;1.00;;;;;;5092178;28;20386;-72
2023/01/11 03:00:39;;;;;;;0.47;0.30;;;11.00;1.00;;;;;;5091936;28;20393;-72
2023/01/11 03:03:29;;;;;;;0.80;0.30;;;11.00;1.00;;;;;;5091515;28;20386;-72
2023/01/11 03:06:06;;;;;;;0.50;0.30;;;11.00;1.00;;;;;;5092247;28;20405;-72
2023/01/11 03:08:50;;;;;;;0.53;0.30;;;10.90;1.00;;;;;;5082384;28;20396;-72
2023/01/11 03:14:33;;;;;;;0.80;0.40;;;11.00;1.00;;;;;;5080526;28;20910;-74
2023/01/11 03:17:29;;;;;;;1.02;0.50;;;11.10;1.00;;;;;;5092081;28;20374;-74
2023/01/11 03:20:18;;;;;;;0.85;0.40;;;11.10;1.00;;;;;;5091950;28;20374;-74
2023/01/11 03:23:04;;;;;;;0.50;0.40;;;11.10;1.00;;;;;;5091259;28;20374;-73
2023/01/11 03:25:58;;;;;;;0.60;0.30;;;11.10;1.00;;;;;;5091290;28;20434;-73
2023/01/11 03:28:37;;;;;;;0.70;0.40;;;11.10;1.00;;;;;;5073653;28;20393;-74
2023/01/11 03:31:34;;;;;;;2.10;0.30;;;11.10;1.00;;;;;;5091435;28;20432;-74
2023/01/11 03:34:13;;;;;;;0.50;0.30;;;11.10;1.00;;;;;;5089621;28;20776;-71
2023/01/11 03:36:59;;;;;;;0.80;0.30;;;11.20;1.00;;;;;;5091673;28;20393;-74
2023/01/11 03:39:42;;;;;;;1.10;0.40;;;11.20;1.00;;;;;;5091611;28;20413;-74
2023/01/11 03:42:10;;;;;;;0.40;0.30;;;11.20;1.00;;;;;;5091605;28;20785;-71
2023/01/11 03:44:41;;;;;;;0.80;0.40;;;11.20;1.00;;;;;;5090477;28;20425;-74
2023/01/11 03:47:10;;;;;;;0.70;0.30;;;11.20;1.00;;;;;;5071007;28;20450;-74
2023/01/11 03:49:50;;;;;;;0.90;0.30;;;11.20;1.00;;;;;;5071133;28;20376;-74
2023/01/11 03:52:19;;;;;;;0.90;0.30;;;11.20;1.00;;;;;;5070199;28;20382;-74
2023/01/11 03:54:45;;;;;;;0.50;0.30;;;11.30;1.00;;;;;;5070441;28;20566;-73
2023/01/11 03:57:24;;;;;;;0.70;0.40;;;11.20;1.00;;;;;;5090869;28;20943;-73
2023/01/11 03:59:50;;;;;;;0.50;0.40;;;11.20;1.00;;;;;;5091216;28;20748;-73
2023/01/11 04:02:23;;;;;;;0.70;0.30;;;11.10;1.00;;;;;;5091155;28;20390;-74
2023/01/11 04:04:48;;;;;;;0.57;0.30;;;11.10;1.00;;;;;;5090669;28;20422;-73
2023/01/11 04:07:14;;;;;;;0.70;0.40;;;11.10;1.00;;;;;;5090953;28;20869;-74
2023/01/11 04:09:40;;;;;;;1.50;0.30;;;11.00;1.00;;;;;;5072048;28;20388;-71
2023/01/11 04:12:06;;;;;;;0.70;0.38;;;11.10;1.00;;;;;;5070813;28;20384;-71
2023/01/11 04:14:31;;;;;;;1.30;0.40;;;11.00;1.00;;;;;;5070970;28;20462;-72
2023/01/11 04:16:57;;;;;;;1.70;0.30;;;11.00;1.00;;;;;;5090981;28;21217;-72
2023/01/11 04:19:22;;;;;;;0.60;0.40;;;10.90;1.00;;;;;;5091107;28;20427;-72
2023/01/11 04:21:48;;;;;;;0.50;0.30;;;10.80;99.90;;;;;;5090988;28;20378;-72
2023/01/11 04:24:13;;;;;;;0.50;0.40;;;10.50;99.90;;;;;;5090033;28;20412;-72
2023/01/11 04:26:39;;;;;;;0.50;0.30;;;10.30;99.90;;;;;;5072432;28;20398;-72
2023/01/11 04:29:05;;;;;;;0.40;0.30;;;10.10;99.90;;;;;;5091126;28;20442;-72
2023/01/11 04:31:31;;;;;;;1.07;0.50;;;10.00;99.90;;;;;;5090692;28;20388;-71
2023/01/11 04:33:56;;;;;;;0.70;0.30;;;10.00;99.90;;;;;;5089538;28;20782;-71
2023/01/11 04:36:22;;;;;;;0.40;0.30;;;9.90;99.90;;;;;;5089971;28;20397;-71
2023/01/11 04:38:47;;;;;;;0.70;0.40;;;9.80;99.90;;;;;;5090648;28;20418;-71
2023/01/11 04:43:57;;;;;;;0.60;0.40;;;9.80;99.90;;;;;;5089754;28;20515;-71
2023/01/11 04:46:23;;;;;;;0.40;0.30;;;9.80;99.90;;;;;;5090144;28;20413;-71
2023/01/11 04:48:49;;;;;;;0.70;0.30;;;9.70;99.90;;;;;;5090377;28;20901;-71
2023/01/11 04:51:14;;;;;;;0.60;0.40;;;9.70;99.90;;;;;;5090747;28;20383;-72
2023/01/11 04:53:40;;;;;;;0.70;0.40;;;9.70;99.90;;;;;;5071862;28;20374;-72
2023/01/11 04:56:06;;;;;;;0.47;0.33;;;9.70;99.90;;;;;;5090516;28;20382;-72
2023/01/11 04:58:34;;;;;;;0.60;0.40;;;9.70;99.90;;;;;;5090173;28;20381;-72
2023/01/11 05:01:06;;;;;;;0.60;0.30;;;9.60;99.90;;;;;;5090518;28;20776;-72
2023/01/11 05:03:31;;;;;;;0.75;0.40;;;9.60;99.90;;;;;;5089769;28;20390;-73
2023/01/11 05:05:58;;;;;;;0.60;0.30;;;9.50;99.90;;;;;;5090021;28;20408;-72
2023/01/11 05:08:26;;;;;;;0.60;0.40;;;9.40;99.90;;;;;;5081983;28;20384;-72
2023/01/11 05:10:53;;;;;;;0.60;0.30;;;9.50;99.90;;;;;;5069924;28;20387;-72
2023/01/11 05:13:18;;;;;;;0.40;0.30;;;9.50;99.90;;;;;;5069846;28;20858;-73
2023/01/11 05:15:44;;;;;;;0.90;0.40;;;9.60;99.90;;;;;;5083200;28;20487;-72
2023/01/11 05:18:09;;;;;;;0.70;0.40;;;9.70;99.90;;;;;;5090312;28;20404;-72
2023/01/11 05:20:35;;;;;;;0.50;0.40;;;9.80;99.90;;;;;;5090322;28;20435;-73
2023/01/11 05:23:00;;;;;;;1.70;0.50;;;9.80;99.90;;;;;;5089521;28;20393;-72
2023/01/11 05:25:26;;;;;;;0.50;0.30;;;9.90;99.90;;;;;;5090090;28;20447;-73
2023/01/11 05:27:51;;;;;;;0.60;0.40;;;10.10;99.90;;;;;;5071789;28;20744;-73
2023/01/11 05:30:17;;;;;;;0.70;0.40;;;10.00;99.90;;;;;;5090339;28;20426;-72
2023/01/11 05:32:42;;;;;;;1.00;0.40;;;10.00;99.90;;;;;;5089590;28;20400;-73
2023/01/11 05:35:10;;;;;;;1.50;0.40;;;10.00;99.90;;;;;;5090071;28;20397;-72
2023/01/11 05:37:35;;;;;;;0.50;0.40;;;10.00;99.90;;;;;;5072025;28;20965;-72
2023/01/11 05:40:01;;;;;;;0.70;0.38;;;10.00;99.90;;;;;;5089530;28;20393;-72
2023/01/11 05:42:27;;;;;;;0.90;0.50;;;10.20;99.90;;;;;;5089128;28;20489;-71
2023/01/11 05:47:36;;;;;;;1.00;0.50;;;10.30;99.90;;;;;;5089179;28;20493;-72
2023/01/11 05:50:02;;;;;;;0.40;0.30;;;10.30;99.90;;;;;;5089792;28;20834;-72
2023/01/11 05:52:27;;;;;;;0.60;0.50;;;10.30;99.90;;;;;;5090173;28;20374;-73
2023/01/11 05:54:53;;;;;;;1.10;0.50;;;10.30;99.90;;;;;;5093185;28;20386;-73
2023/01/11 05:57:18;;;;;;;0.50;0.40;;;10.40;99.90;;;;;;5093414;28;20751;-73
2023/01/11 05:59:44;;;;;;;1.10;0.50;;;10.40;99.90;;;;;;5093444;28;20394;-73
2023/01/11 06:02:09;;;;;;;0.47;0.30;;;10.40;99.90;;;;;;5093034;28;20396;-73
2023/01/11 06:04:35;;;;;;;1.00;0.70;;;10.50;99.90;;;;;;5092556;28;20787;-73
2023/01/11 06:07:00;;;;;;;1.40;0.60;;;10.60;99.90;;;;;;5075160;28;20398;-73
2023/01/11 06:09:27;;;;;;;0.60;0.40;;;10.70;99.90;;;;;;5076143;28;20391;-73
2023/01/11 06:11:52;;;;;;;0.90;0.60;;;10.60;99.90;;;;;;5088721;28;20386;-73
2023/01/11 06:14:18;;;;;;;0.70;0.40;;;10.50;99.90;;;;;;5092594;28;20449;-73
2023/01/11 06:16:43;;;;;;;0.70;0.50;;;10.50;99.90;;;;;;5093124;28;20408;-73
2023/01/11 06:19:10;;;;;;;1.00;0.90;;;10.50;99.90;;;;;;5092973;28;20408;-73
2023/01/11 06:21:35;;;;;;;7.85;5.45;;;10.50;99.90;;;;;;5093131;28;20378;-73
2023/01/11 06:24:01;;;;;;;2.80;1.80;;;10.60;99.90;;;;;;5092215;28;20413;-73
2023/01/11 06:26:26;;;;;;;3.00;2.70;;;10.70;99.90;;;;;;5092924;28;20405;-73
2023/01/11 06:28:52;;;;;;;1.75;1.60;;;10.70;99.90;;;;;;5092812;28;20397;-73
2023/01/11 06:31:18;;;;;;;1.58;0.70;;;10.70;99.90;;;;;;5092722;28;20386;-73
2023/01/11 06:33:45;;;;;;;1.50;0.47;;;10.80;99.90;;;;;;5073812;28;20397;-73
2023/01/11 06:36:12;;;;;;;0.60;0.40;;;10.90;99.90;;;;;;5092631;28;20382;-73
2023/01/11 06:38:37;;;;;;;1.40;0.40;;;11.00;99.90;;;;;;5092799;28;20413;-73
2023/01/11 06:41:07;;;;;;;0.70;0.30;;;11.00;99.90;;;;;;5092726;28;20374;-73
2023/01/11 06:43:33;;;;;;;1.40;0.30;;;11.00;99.90;;;;;;5073684;28;20390;-73
2023/01/11 06:45:58;;;;;;;0.40;0.30;;;10.90;99.90;;;;;;5092488;28;20763;-73
2023/01/11 06:48:24;;;;;;;0.40;0.30;;;11.10;99.90;;;;;;5092351;28;20402;-73
2023/01/11 06:50:52;;;;;;;1.10;0.40;;;11.10;99.90;;;;;;5092646;28;20381;-73
2023/01/11 06:53:18;;;;;;;0.40;0.30;;;11.20;99.90;;;;;;5091846;28;20466;-71
2023/01/11 06:55:47;;;;;;;0.40;0.30;;;11.20;99.90;;;;;;5092512;28;20379;-74
2023/01/11 06:58:13;;;;;;;0.40;0.30;;;11.10;99.90;;;;;;5092314;28;20455;-73
2023/01/11 07:00:38;;;;;;;0.47;0.30;;;11.20;99.90;;;;;;5092566;28;20786;-73
2023/01/11 07:03:05;;;;;;;0.70;0.40;;;11.50;89.80;;;;;;5073220;28;20427;-74
2023/01/11 07:05:33;;;;;;;0.80;0.30;;;11.50;92.10;;;;;;5091575;28;20455;-73
2023/01/11 07:07:58;;;;;;;0.50;0.30;;;11.50;63.50;;;;;;5083342;28;20383;-74
2023/01/11 07:10:50;;;;;;;0.40;0.30;;;11.50;85.30;;;;;;5090711;28;20955;-74
2023/01/11 07:13:16;;;;;;;0.80;0.30;;;11.70;23.00;;;;;;5090965;28;20386;-73
2023/01/11 07:15:44;;;;;;;0.40;0.30;;;11.70;34.10;;;;;;5092127;28;20908;-74
2023/01/11 07:18:10;;;;;;;0.50;0.30;;;11.70;7.20;;;;;;5091882;28;20756;-73
2023/01/11 07:20:36;;;;;;;0.40;0.30;;;11.80;1.00;;;;;;5091727;28;20751;-74
2023/01/11 07:23:02;;;;;;;0.50;0.30;;;11.90;1.00;;;;;;5090881;28;20477;-73
2023/01/11 07:25:29;;;;;;;0.50;0.30;;;11.90;1.00;;;;;;5091884;28;20484;-72
2023/01/11 07:27:56;;;;;;;0.60;0.30;;;11.90;1.00;;;;;;5073786;28;20386;-72
2023/01/11 07:30:22;;;;;;;0.50;0.30;;;11.90;1.00;;;;;;5091618;28;20386;-72
2023/01/11 07:32:48;;;;;;;0.40;0.30;;;11.90;1.00;;;;;;5090586;28;20397;-72
2023/01/11 07:35:13;;;;;;;0.50;0.30;;;11.90;1.00;;;;;;5091758;28;20385;-71
2023/01/11 07:37:40;;;;;;;0.50;0.30;;;12.00;1.00;;;;;;5091608;28;20402;-71
2023/01/11 07:40:08;;;;;;;0.60;0.30;;;12.00;1.00;;;;;;5074255;28;20386;-72
2023/01/11 07:45:17;;;;;;;0.50;0.40;;;12.00;1.00;;;;;;5091689;28;20401;-72
2023/01/11 07:47:43;;;;;;;0.50;0.30;;;12.00;1.00;;;;;;5073064;28;20390;-72
2023/01/11 07:50:09;;;;;;;0.40;0.30;;;12.00;1.00;;;;;;5091550;28;20378;-72
2023/01/11 07:52:34;;;;;;;0.50;0.40;;;12.00;1.00;;;;;;5090332;28;20392;-71
2023/01/11 07:55:01;;;;;;;0.50;0.30;;;12.00;1.00;;;;;;5091441;28;20775;-72
2023/01/11 07:57:28;;;;;;;1.00;0.30;;;12.00;1.00;;;;;;5091289;28;20443;-72
2023/01/11 07:59:53;;;;;;;0.60;0.40;;;12.00;1.00;;;;;;5072954;28;20386;-72
2023/01/11 08:02:19;;;;;;;0.60;0.30;;;12.00;1.00;;;;;;5090810;28;20479;-72
2023/01/11 08:04:45;;;;;;;0.50;0.30;;;12.00;1.00;;;;;;5090452;28;20408;-72
2023/01/11 08:07:10;;;;;;;0.60;0.50;;;12.00;1.00;;;;;;5069808;28;20387;-72
2023/01/11 08:09:36;;;;;;;0.70;0.50;;;12.00;1.00;;;;;;5090977;28;20888;-72
2023/01/11 08:14:45;;;;;;;0.57;0.40;;;12.00;1.00;;;;;;5090247;28;20448;-72
2023/01/11 08:17:13;;;;;;;1.20;0.40;;;11.90;1.00;;;;;;5089842;28;20394;-72
2023/01/11 08:19:39;;;;;;;0.50;0.30;;;12.00;1.00;;;;;;5090936;28;20486;-72
2023/01/11 08:22:05;;;;;;;0.50;0.30;;;12.00;1.00;;;;;;5091076;28;20469;-72
2023/01/11 08:24:31;;;;;;;0.40;0.30;;;11.90;1.00;;;;;;5089546;28;20398;-72
2023/01/11 08:26:56;;;;;;;0.40;0.30;;;12.00;1.00;;;;;;5090424;28;20771;-72
2023/01/11 08:29:23;;;;;;;0.70;0.40;;;12.00;1.00;;;;;;5091040;28;20374;-72
2023/01/11 08:31:49;;;;;;;0.50;0.40;;;12.00;1.00;;;;;;5090806;28;20405;-71
2023/01/11 08:34:14;;;;;;;0.60;0.40;;;12.00;1.00;;;;;;5089978;28;20406;-72
2023/01/11 08:36:40;;;;;;;0.80;0.30;;;12.10;1.00;;;;;;5090585;28;20382;-72
2023/01/11 08:39:05;;;;;;;0.50;0.30;;;12.10;1.00;;;;;;5090457;28;20745;-72
2023/01/11 08:41:31;;;;;;;0.40;0.30;;;12.10;1.00;;;;;;5090371;28;20798;-72
2023/01/11 08:43:57;;;;;;;0.40;0.30;;;12.10;1.00;;;;;;5090902;28;20378;-72
2023/01/11 08:46:24;;;;;;;0.70;0.30;;;12.10;1.00;;;;;;5090406;28;20436;-72
2023/01/11 08:48:50;;;;;;;1.00;0.30;;;12.20;1.00;;;;;;5072616;28;20794;-73
2023/01/11 08:51:16;;;;;;;1.10;0.30;;;12.20;1.00;;;;;;5090823;28;20374;-72
2023/01/11 08:53:42;;;;;;;0.40;0.30;;;12.20;1.00;;;;;;5089829;28;20378;-72
2023/01/11 08:56:08;;;;;;;0.40;0.30;;;12.20;1.00;;;;;;5090248;28;20389;-72
2023/01/11 08:58:34;;;;;;;0.40;0.30;;;12.20;1.00;;;;;;5090542;28;20878;-72
2023/01/11 09:01:02;;;;;;;0.40;0.30;;;12.20;1.00;;;;;;5090483;28;20896;-72
2023/01/11 09:03:29;;;;;;;0.40;0.30;;;12.20;1.00;;;;;;5089680;28;20385;-72
2023/01/11 09:05:58;;;;;;;0.60;0.30;;;12.20;1.00;;;;;;5089899;28;20914;-72
2023/01/11 09:08:25;;;;;;;0.50;0.37;;;12.20;1.00;;;;;;5081581;28;20520;-72
2023/01/11 09:10:51;;;;;;;0.50;0.30;;;12.20;1.00;;;;;;5070291;28;20387;-72
2023/01/11 09:13:16;;;;;;;0.40;0.30;;;12.10;1.00;;;;;;5085635;28;20439;-72
2023/01/11 09:15:45;;;;;;;0.50;0.30;;;12.20;1.00;;;;;;5090428;28;20378;-72
2023/01/11 09:18:11;;;;;;;0.50;0.35;;;12.10;1.00;;;;;;5090336;28;20473;-72
2023/01/11 09:20:36;;;;;;;0.60;0.40;;;12.20;1.00;;;;;;5090462;28;20389;-72
2023/01/11 09:23:02;;;;;;;0.70;0.40;;;12.20;1.00;;;;;;5089139;28;20389;-72
2023/01/11 09:25:27;;;;;;;0.70;0.40;;;12.20;1.00;;;;;;5071957;28;20445;-72
2023/01/11 09:27:53;;;;;;;1.77;0.40;;;12.20;1.00;;;;;;5091432;28;20382;-73
2023/01/11 09:30:21;;;;;;;0.67;0.40;;;12.20;1.00;;;;;;5093994;28;20440;-73
2023/01/11 09:32:48;;;;;;;0.63;0.30;;;12.20;1.00;;;;;;5093345;28;20871;-72
2023/01/11 09:35:15;;;;;;;0.70;0.60;;;12.30;1.00;;;;;;5094114;28;20382;-73
2023/01/11 09:37:47;;;;;;;1.50;0.30;;;12.20;1.00;;;;;;5075618;28;20390;-72
2023/01/11 09:40:41;;;;;;;0.90;0.30;;;12.20;1.00;;;;;;5093827;28;20393;-72
2023/01/11 09:43:11;;;;;;;0.60;0.40;;;12.30;1.00;;;;;;5083029;28;20401;-73
2023/01/11 09:45:45;;;;;;;0.45;0.30;;;12.30;1.00;;;;;;5093592;28;20402;-73
2023/01/11 09:48:27;;;;;;;0.47;0.40;;;12.30;1.00;;;;;;5093576;28;20879;-73
2023/01/11 09:50:54;;;;;;;0.50;0.30;;;12.30;1.00;;;;;;5093918;28;20369;-73
2023/01/11 09:53:31;;;;;;;1.00;0.33;;;12.30;1.00;;;;;;5091333;28;20377;-72
2023/01/11 09:56:00;;;;;;;0.60;0.47;;;12.30;1.00;;;;;;5093588;28;20880;-73
2023/01/11 09:58:56;;;;;;;1.23;0.40;;;12.40;1.00;;;;;;5093638;28;21024;-73
2023/01/11 10:01:45;;;;;;;0.60;0.40;;;12.40;1.00;;;;;;5093419;28;20398;-73
2023/01/11 10:04:24;;;;;;;0.50;0.40;;;12.50;1.00;;;;;;5074414;28;20908;-73
2023/01/11 10:07:27;;;;;;;1.10;0.40;;;12.50;1.00;;;;;;5093322;28;20401;-73
2023/01/11 10:10:12;;;;;;;0.98;0.60;;;12.50;1.00;;;;;;5073271;28;20766;-73
2023/01/11 10:12:56;;;;;;;0.43;0.30;;;12.50;1.00;;;;;;5072524;28;20429;-73
2023/01/11 10:16:07;;;;;;;0.52;0.30;;;12.40;5.20;;;;;;5073173;28;20395;-73
2023/01/11 10:18:57;;;;;;;0.80;0.40;;;12.40;39.90;;;;;;5077420;28;20391;-72
2023/01/11 10:21:35;;;;;;;0.50;0.30;;;12.30;99.90;;;;;;5093074;28;20386;-72
2023/01/11 10:24:20;;;;;;;0.50;0.40;;;12.20;99.90;;;;;;5092655;28;20867;-72
2023/01/11 10:26:49;;;;;;;0.68;0.50;;;12.00;99.90;;;;;;5093347;28;20906;-72
2023/01/11 10:29:41;;;;;;;0.60;0.50;;;12.00;99.90;;;;;;5074633;28;20824;-72
2023/01/11 10:32:33;;;;;;;0.80;0.50;;;12.00;99.90;;;;;;5092776;28;20432;-72
2023/01/11 10:35:19;;;;;;;0.52;0.40;;;11.90;99.90;;;;;;5092692;28;20386;-72
2023/01/11 10:38:02;;;;;;;1.10;0.60;;;11.90;99.90;;;;;;5093025;28;20467;-72
2023/01/11 10:41:01;;;;;;;0.70;0.50;;;11.70;99.90;;;;;;5092878;28;20385;-72
2023/01/11 10:43:24;;;;;;;0.63;0.50;;;11.60;99.90;;;;;;5091582;28;20469;-72
2023/01/11 10:46:05;;;;;;;1.30;0.57;;;11.60;99.90;;;;;;5092727;28;20424;-72
2023/01/11 10:48:33;;;;;;;0.90;0.60;;;11.50;99.90;;;;;;5092478;28;20760;-72
2023/01/11 10:51:22;;;;;;;0.70;0.50;;;11.60;99.90;;;;;;5074262;28;20407;-73
2023/01/11 10:54:03;;;;;;;0.60;0.50;;;11.60;99.90;;;;;;5091782;28;20413;-72
2023/01/11 10:57:07;;;;;;;0.50;0.40;;;11.60;99.90;;;;;;5092566;28;20469;-73
2023/01/11 10:59:57;;;;;;;0.65;0.40;;;11.70;99.90;;;;;;5092563;28;20751;-71
2023/01/11 11:02:51;;;;;;;0.40;0.30;;;11.70;99.90;;;;;;5054204;28;20392;-72
2023/01/11 11:05:28;;;;;;;0.60;0.40;;;11.70;99.90;;;;;;5072134;28;20411;-72
2023/01/11 11:07:57;;;;;;;0.60;0.50;;;11.70;99.90;;;;;;5086085;28;20877;-71
2023/01/11 11:10:28;;;;;;;0.50;0.30;;;11.80;99.90;;;;;;5054192;28;20384;-71
2023/01/11 11:13:07;;;;;;;0.50;0.30;;;11.80;99.90;;;;;;5071275;28;20383;-71
2023/01/11 11:15:39;;;;;;;0.50;0.30;;;11.80;99.90;;;;;;5071844;28;20854;-72
2023/01/11 11:18:05;;;;;;;0.60;0.38;;;11.70;99.90;;;;;;5091123;28;20393;-71
2023/01/11 11:20:32;;;;;;;0.50;0.30;;;11.70;99.90;;;;;;5092130;28;20381;-71
2023/01/11 11:22:58;;;;;;;1.10;0.50;;;11.70;99.90;;;;;;5090986;28;20516;-72
2023/01/11 11:25:38;;;;;;;0.50;0.40;;;11.70;99.90;;;;;;5091791;28;20860;-71
2023/01/11 11:28:24;;;;;;;0.50;0.30;;;11.70;99.90;;;;;;5091804;28;20894;-71
2023/01/11 11:30:56;;;;;;;1.30;0.40;;;11.60;99.90;;;;;;5073881;28;20435;-72
2023/01/11 11:33:38;;;;;;;0.70;0.40;;;11.60;99.90;;;;;;5090987;28;20443;-72
2023/01/11 11:36:07;;;;;;;0.50;0.40;;;11.60;99.90;;;;;;5091642;28;20397;-72
2023/01/11 11:38:36;;;;;;;0.60;0.40;;;11.60;99.90;;;;;;5091709;28;20386;-73
2023/01/11 11:41:14;;;;;;;0.85;0.40;;;11.60;99.90;;;;;;5091851;28;20410;-73
2023/01/11 11:43:43;;;;;;;0.55;0.40;;;11.40;99.90;;;;;;5090784;28;20409;-73
2023/01/11 11:46:12;;;;;;;1.80;0.50;;;11.30;99.90;;;;;;5091206;28;20410;-74
2023/01/11 11:48:37;;;;;;;0.57;0.50;;;11.20;99.90;;;;;;5091503;28;20400;-74
2023/01/11 11:51:06;;;;;;;0.90;0.68;;;11.10;99.90;;;;;;5090526;28;20390;-75
2023/01/11 11:53:41;;;;;;;0.50;0.50;;;11.00;99.90;;;;;;5090756;28;20418;-74
2023/01/11 11:56:27;;;;;;;0.50;0.50;;;10.80;99.90;;;;;;5091485;28;20389;-74
2023/01/11 11:58:54;;;;;;;0.90;0.52;;;10.70;99.90;;;;;;5073065;28;20374;-73
2023/01/11 12:01:25;;;;;;;0.50;0.40;;;10.70;99.90;;;;;;5090880;28;20428;-73
2023/01/11 12:03:54;;;;;;;0.80;0.50;;;10.70;99.90;;;;;;5090498;28;20382;-74
2023/01/11 12:06:27;;;;;;;1.40;0.50;;;10.60;99.90;;;;;;5090985;28;20402;-74
2023/01/11 12:08:54;;;;;;;0.40;0.40;;;10.60;99.90;;;;;;5069306;28;20398;-74
2023/01/11 12:11:28;;;;;;;0.50;0.50;;;10.60;99.90;;;;;;5091168;28;21064;-74
2023/01/11 12:14:26;;;;;;;0.53;0.50;;;10.60;99.90;;;;;;5090364;28;20454;-73
2023/01/11 12:16:52;;;;;;;0.70;0.60;;;10.60;99.90;;;;;;5090300;28;20401;-74
2023/01/11 12:19:25;;;;;;;0.90;0.70;;;10.60;99.90;;;;;;5090773;28;20386;-74
2023/01/11 12:21:51;;;;;;;0.63;0.52;;;10.60;99.90;;;;;;5073041;28;20393;-74
2023/01/11 12:24:18;;;;;;;0.85;0.63;;;10.70;99.90;;;;;;5090077;28;20752;-74
2023/01/11 12:27:14;;;;;;;1.00;0.70;;;10.70;99.90;;;;;;5090740;28;20408;-74
2023/01/11 12:29:46;;;;;;;0.90;0.60;;;10.70;99.90;;;;;;5090724;28;20393;-74
2023/01/11 12:32:24;;;;;;;0.90;0.60;;;10.70;99.90;;;;;;5090764;28;20461;-74
2023/01/11 12:34:58;;;;;;;0.88;0.60;;;10.70;99.90;;;;;;5072252;28;20386;-74
2023/01/11 12:37:55;;;;;;;0.70;0.65;;;10.80;99.90;;;;;;5072621;28;20405;-74
2023/01/11 12:40:32;;;;;;;0.90;0.50;;;10.70;99.90;;;;;;5090678;28;20933;-74
2023/01/11 12:43:09;;;;;;;1.00;0.40;;;10.70;99.90;;;;;;5089646;28;20901;-74
2023/01/11 12:45:45;;;;;;;1.42;0.50;;;10.70;99.90;;;;;;5090433;28;20427;-73
2023/01/11 12:48:20;;;;;;;0.50;0.50;;;10.70;99.90;;;;;;5090185;28;20425;-73
2023/01/11 12:51:06;;;;;;;0.80;0.60;;;10.60;99.90;;;;;;5089928;28;20470;-73
2023/01/11 12:53:40;;;;;;;0.80;0.70;;;10.60;99.90;;;;;;5089549;28;20379;-72
2023/01/11 12:56:23;;;;;;;0.52;0.40;;;10.60;99.90;;;;;;5090118;28;20390;-73
2023/01/11 12:59:01;;;;;;;0.60;0.40;;;10.60;99.90;;;;;;5084338;28;20946;-72
2023/01/11 13:01:49;;;;;;;0.70;0.47;;;10.70;99.90;;;;;;5091042;28;20397;-72
2023/01/11 13:04:27;;;;;;;0.50;0.50;;;10.70;99.90;;;;;;5093641;28;20386;-71
2023/01/11 13:07:20;;;;;;;1.20;0.60;;;10.80;99.90;;;;;;5095063;28;21107;-72
2023/01/11 13:10:10;;;;;;;1.10;0.50;;;10.70;99.90;;;;;;5056587;28;20388;-72
2023/01/11 13:12:45;;;;;;;0.80;0.70;;;10.80;99.90;;;;;;5073579;28;20389;-72
2023/01/11 13:15:11;;;;;;;0.90;0.80;;;10.80;99.90;;;;;;5086342;28;20393;-72
2023/01/11 13:18:05;;;;;;;0.80;0.70;;;10.80;99.90;;;;;;5094304;28;20390;-72
2023/01/11 13:20:46;;;;;;;0.67;0.50;;;10.90;99.90;;;;;;5094012;28;20477;-71
2023/01/11 13:23:11;;;;;;;0.80;0.60;;;10.90;99.90;;;;;;5093556;28;20950;-71
2023/01/11 13:25:40;;;;;;;0.80;0.70;;;10.90;99.90;;;;;;5093624;28;20429;-71
2023/01/11 13:28:28;;;;;;;1.00;0.70;;;11.00;99.90;;;;;;5094204;28;20401;-71
2023/01/11 13:30:55;;;;;;;0.90;0.73;;;11.00;99.90;;;;;;5093840;28;20866;-71
2023/01/11 13:33:22;;;;;;;1.05;0.70;;;11.00;99.90;;;;;;5090232;28;20420;-73
2023/01/11 13:36:13;;;;;;;0.55;0.55;;;11.00;99.90;;;;;;5125792;22;20914;-73
2023/01/11 13:38:43;;;;;;;0.80;0.60;;;11.10;99.90;;;;;;5088778;28;20384;-73